createdAt,value
2018-12-10T00:01:23.678Z,98871.00
2018-12-10T00:03:54.027Z,98877.08
2018-12-10T00:06:22.392Z,98874.94
2018-12-10T00:08:51.015Z,98886.92
2018-12-10T00:11:19.343Z,98885.63
2018-12-10T00:13:47.686Z,98907.19
2018-12-10T00:16:16.135Z,98906.62
2018-12-10T00:18:44.507Z,98898.66
2018-12-10T00:21:12.908Z,98919.11
2018-12-10T00:23:41.263Z,98915.42
2018-12-10T00:26:09.654Z,98920.17
2018-12-10T00:28:38.061Z,98933.72
2018-12-10T00:31:08.049Z,98921.25
2018-12-10T00:33:37.188Z,98936.13
2018-12-10T00:36:05.612Z,98944.88
2018-12-10T00:38:33.907Z,98940.59
2018-12-10T00:41:02.282Z,98930.48
2018-12-10T00:43:30.670Z,98949.86
2018-12-10T00:45:59.048Z,98945.61
2018-12-10T00:48:27.391Z,98949.34
2018-12-10T00:50:55.714Z,98951.75
2018-12-10T00:53:24.073Z,98958.39
2018-12-10T00:55:52.427Z,98972.20
2018-12-10T00:58:21.105Z,98967.17
2018-12-10T01:00:49.722Z,98960.30
2018-12-10T01:03:18.267Z,98967.52
2018-12-10T01:05:46.708Z,98967.31
2018-12-10T01:08:17.055Z,98965.50
2018-12-10T01:10:47.083Z,98965.54
2018-12-10T01:13:15.427Z,98971.34
2018-12-10T01:15:43.851Z,98975.34
2018-12-10T01:18:12.178Z,98981.72
2018-12-10T01:20:40.568Z,98991.56
2018-12-10T01:23:09.100Z,98995.54
2018-12-10T01:25:37.549Z,99004.84
2018-12-10T01:28:06.004Z,99005.36
2018-12-10T01:30:34.335Z,99016.53
2018-12-10T01:33:02.822Z,99017.85
2018-12-10T01:35:31.407Z,99012.81
2018-12-10T01:37:59.820Z,99017.32
2018-12-10T01:40:28.201Z,99015.98
2018-12-10T01:42:56.577Z,99023.94
2018-12-10T01:45:24.971Z,99026.06
2018-12-10T01:47:53.510Z,99020.22
2018-12-10T01:50:21.977Z,99032.70
2018-12-10T01:52:50.279Z,99031.63
2018-12-10T01:55:18.624Z,99035.05
2018-12-10T01:57:47.879Z,99033.73
2018-12-10T02:00:16.429Z,99033.20
2018-12-10T02:02:44.819Z,99050.99
2018-12-10T02:05:13.169Z,99041.17
2018-12-10T02:07:42.154Z,99044.09
2018-12-10T02:10:10.667Z,99049.13
2018-12-10T02:12:39.865Z,99052.59
2018-12-10T02:15:08.273Z,99049.69
2018-12-10T02:17:36.754Z,99052.34
2018-12-10T02:20:05.303Z,99058.98
2018-12-10T02:22:33.650Z,99048.87
2018-12-10T02:25:01.977Z,99053.39
2018-12-10T02:27:30.306Z,99057.66
2018-12-10T02:29:58.897Z,99066.15
2018-12-10T02:32:27.475Z,99063.20
2018-12-10T02:34:55.905Z,99077.55
2018-12-10T02:37:24.916Z,99070.11
2018-12-10T02:39:53.570Z,99078.10
2018-12-10T02:42:21.993Z,99078.34
2018-12-10T02:44:50.607Z,99094.82
2018-12-10T02:47:19.142Z,99080.19
2018-12-10T02:49:47.567Z,99087.36
2018-12-10T02:52:16.035Z,99087.11
2018-12-10T02:54:44.435Z,99093.75
2018-12-10T02:57:12.921Z,99096.14
2018-12-10T02:59:41.398Z,99098.26
2018-12-10T03:02:09.865Z,99096.39
2018-12-10T03:04:38.395Z,99104.37
2018-12-10T03:07:06.934Z,99098.02
2018-12-10T03:09:35.237Z,99111.02
2018-12-10T03:12:03.611Z,99101.98
2018-12-10T03:14:32.245Z,99105.47
2018-12-10T03:17:00.914Z,99118.73
2018-12-10T03:19:29.242Z,99125.37
2018-12-10T03:21:58.412Z,99123.27
2018-12-10T03:24:27.010Z,99130.42
2018-12-10T03:26:55.349Z,99128.03
2018-12-10T03:29:23.761Z,99135.73
2018-12-10T03:31:52.272Z,99150.05
2018-12-10T03:34:20.695Z,99154.56
2018-12-10T03:36:49.072Z,99159.58
2018-12-10T03:39:17.458Z,99167.78
2018-12-10T03:41:45.834Z,99171.50
2018-12-10T03:44:14.220Z,99177.06
2018-12-10T03:46:42.589Z,99178.92
2018-12-10T03:49:11.172Z,99172.53
2018-12-10T03:51:39.860Z,99184.76
2018-12-10T03:54:08.279Z,99191.64
2018-12-10T03:56:36.613Z,99195.88
2018-12-10T03:59:05.005Z,99193.75
2018-12-10T04:01:33.326Z,99193.22
2018-12-10T04:04:01.651Z,99199.34
2018-12-10T04:06:30.044Z,99202.00
2018-12-10T04:08:58.473Z,99205.15
2018-12-10T04:11:26.818Z,99203.55
2018-12-10T04:13:55.349Z,99213.09
2018-12-10T04:16:23.868Z,99218.39
2018-12-10T04:18:52.344Z,99214.41
2018-12-10T04:21:20.685Z,99219.47
2018-12-10T04:23:49.308Z,99225.81
2018-12-10T04:26:17.995Z,99223.44
2018-12-10T04:28:46.397Z,99236.70
2018-12-10T04:31:14.735Z,99229.00
2018-12-10T04:33:43.095Z,99230.06
2018-12-10T04:36:11.433Z,99234.30
2018-12-10T04:38:39.891Z,99249.13
2018-12-10T04:41:08.226Z,99249.13
2018-12-10T04:43:36.966Z,99259.71
2018-12-10T04:46:15.029Z,99264.23
2018-12-10T04:48:43.441Z,99263.16
2018-12-10T04:51:11.779Z,99263.20
2018-12-10T04:53:40.125Z,99267.98
2018-12-10T04:56:08.476Z,99277.50
2018-12-10T04:58:37.222Z,99274.86
2018-12-10T05:01:06.058Z,99281.00
2018-12-10T05:03:34.399Z,99288.97
2018-12-10T05:06:02.715Z,99284.70
2018-12-10T05:08:31.243Z,99293.19
2018-12-10T05:10:59.618Z,99294.27
2018-12-10T05:13:27.980Z,99314.15
2018-12-10T05:15:56.304Z,99311.19
2018-12-10T05:18:24.683Z,99317.02
2018-12-10T05:20:53.098Z,99321.00
2018-12-10T05:23:21.449Z,99319.66
2018-12-10T05:25:54.376Z,99336.89
2018-12-10T05:28:22.902Z,99333.92
2018-12-10T05:30:51.262Z,99350.89
2018-12-10T05:33:19.605Z,99348.24
2018-12-10T05:35:47.943Z,99339.73
2018-12-10T05:38:16.276Z,99351.93
2018-12-10T05:40:44.624Z,99354.06
2018-12-10T05:43:13.515Z,99360.40
2018-12-10T05:45:41.912Z,99362.52
2018-12-10T05:48:10.294Z,99364.11
2018-12-10T05:50:38.728Z,99365.99
2018-12-10T05:53:07.052Z,99364.15
2018-12-10T05:55:35.391Z,99376.16
2018-12-10T05:58:03.740Z,99359.98
2018-12-10T06:00:32.117Z,99369.55
2018-12-10T06:03:01.488Z,99361.14
2018-12-10T06:05:30.480Z,99365.21
2018-12-10T06:07:58.864Z,99381.41
2018-12-10T06:10:27.204Z,99376.63
2018-12-10T06:12:55.520Z,99384.83
2018-12-10T06:15:23.853Z,99386.11
2018-12-10T06:17:52.438Z,99390.63
2018-12-10T06:20:20.862Z,99399.78
2018-12-10T06:22:49.252Z,99398.91
2018-12-10T06:25:17.618Z,99398.39
2018-12-10T06:27:46.003Z,99412.23
2018-12-10T06:30:14.344Z,99416.17
2018-12-10T06:32:42.763Z,99420.88
2018-12-10T06:35:11.148Z,99419.02
2018-12-10T06:40:36.422Z,99424.54
2018-12-10T06:43:04.833Z,99430.61
2018-12-10T06:45:33.208Z,99435.36
2018-12-10T06:50:57.417Z,99432.02
2018-12-10T06:53:25.751Z,99442.09
2018-12-10T06:55:54.071Z,99440.59
2018-12-10T06:58:23.899Z,99443.20
2018-12-10T07:00:52.497Z,99446.36
2018-12-10T07:03:20.894Z,99454.00
2018-12-10T07:05:49.277Z,99453.17
2018-12-10T07:11:13.784Z,99464.09
2018-12-10T07:13:42.437Z,99464.47
2018-12-10T07:16:10.958Z,99471.66
2018-12-10T07:18:39.236Z,99482.11
2018-12-10T07:21:07.673Z,99486.84
2018-12-10T07:23:36.064Z,99490.06
2018-12-10T07:26:04.433Z,99483.62
2018-12-10T07:28:32.873Z,99491.00
2018-12-10T07:31:01.244Z,99494.33
2018-12-10T07:33:29.585Z,99495.25
2018-12-10T07:35:57.975Z,99498.94
2018-12-10T07:38:26.322Z,99504.25
2018-12-10T07:40:54.731Z,99497.27
2018-12-10T07:43:23.112Z,99505.96
2018-12-10T07:45:51.511Z,99500.73
2018-12-10T07:48:19.868Z,99504.58
2018-12-10T07:50:49.535Z,99514.18
2018-12-10T07:53:17.963Z,99510.03
2018-12-10T07:55:46.550Z,99520.47
2018-12-10T07:58:14.878Z,99515.59
2018-12-10T08:00:43.229Z,99520.34
2018-12-10T08:03:11.687Z,99520.57
2018-12-10T08:05:40.054Z,99524.14
2018-12-10T08:08:08.498Z,99530.86
2018-12-10T08:10:36.840Z,99535.15
2018-12-10T08:13:05.408Z,99548.09
2018-12-10T08:15:33.765Z,99550.00
2018-12-10T08:18:02.253Z,99544.37
2018-12-10T08:20:31.041Z,99549.05
2018-12-10T08:22:59.403Z,99546.56
2018-12-10T08:25:27.809Z,99560.09
2018-12-10T08:27:56.181Z,99557.19
2018-12-10T08:30:24.581Z,99558.33
2018-12-10T08:32:53.057Z,99568.92
2018-12-10T08:35:21.394Z,99569.73
2018-12-10T08:37:49.730Z,99580.14
2018-12-10T08:40:18.321Z,99588.17
2018-12-10T08:42:47.138Z,99579.17
2018-12-10T08:45:15.524Z,99578.62
2018-12-10T08:47:43.941Z,99581.02
2018-12-10T08:50:12.330Z,99572.88
2018-12-10T08:52:40.699Z,99571.10
2018-12-10T08:55:09.581Z,99575.14
2018-12-10T08:57:38.164Z,99573.66
2018-12-10T09:00:07.562Z,99574.22
2018-12-10T09:02:35.988Z,99569.50
2018-12-10T09:05:05.011Z,99579.99
2018-12-10T09:07:34.406Z,99582.18
2018-12-10T09:10:03.553Z,99586.14
2018-12-10T09:12:32.045Z,99582.39
2018-12-10T09:15:00.418Z,99582.08
2018-12-10T09:17:28.761Z,99588.66
2018-12-10T09:19:57.142Z,99586.00
2018-12-10T09:22:25.467Z,99589.87
2018-12-10T09:24:53.845Z,99587.71
2018-12-10T09:27:22.159Z,99585.02
2018-12-10T09:29:51.327Z,99596.41
2018-12-10T09:32:21.316Z,99595.70
2018-12-10T09:34:49.806Z,99598.14
2018-12-10T09:37:18.205Z,99597.35
2018-12-10T09:39:46.527Z,99609.50
2018-12-10T09:42:14.902Z,99606.80
2018-12-10T09:44:43.235Z,99605.30
2018-12-10T09:47:11.585Z,99602.36
2018-12-10T09:49:40.020Z,99609.23
2018-12-10T09:52:08.368Z,99612.77
2018-12-10T09:54:36.776Z,99608.22
2018-12-10T09:57:05.102Z,99609.81
2018-12-10T09:59:33.507Z,99599.09
2018-12-10T10:02:02.110Z,99612.07
2018-12-10T10:04:30.763Z,99610.23
2018-12-10T10:07:00.883Z,99615.23
2018-12-10T10:09:29.270Z,99610.61
2018-12-10T10:11:57.652Z,99616.98
2018-12-10T10:14:26.083Z,99624.98
2018-12-10T10:16:54.523Z,99620.75
2018-12-10T10:19:22.872Z,99616.20
2018-12-10T10:21:51.277Z,99610.27
2018-12-10T10:24:19.609Z,99610.94
2018-12-10T10:26:47.992Z,99611.84
2018-12-10T10:29:16.319Z,99615.95
2018-12-10T10:31:44.793Z,99615.80
2018-12-10T10:34:13.195Z,99608.92
2018-12-10T10:36:41.757Z,99599.06
2018-12-10T10:39:10.329Z,99597.11
2018-12-10T10:41:39.221Z,99592.06
2018-12-10T10:44:07.603Z,99590.46
2018-12-10T10:46:35.936Z,99595.88
2018-12-10T10:49:04.329Z,99589.91
2018-12-10T10:51:32.679Z,99581.40
2018-12-10T10:54:01.076Z,99597.30
2018-12-10T10:56:29.585Z,99581.66
2018-12-10T10:58:57.937Z,99594.60
2018-12-10T11:01:31.807Z,99580.03
2018-12-10T11:04:00.138Z,99586.17
2018-12-10T11:06:28.699Z,99594.30
2018-12-10T11:08:57.044Z,99571.80
2018-12-10T11:11:25.438Z,99586.28
2018-12-10T11:13:54.914Z,99584.67
2018-12-10T11:16:23.701Z,99565.03
2018-12-10T11:18:52.094Z,99578.53
2018-12-10T11:21:21.154Z,99570.84
2018-12-10T11:23:49.466Z,99570.17
2018-12-10T11:26:17.804Z,99569.65
2018-12-10T11:28:46.137Z,99576.63
2018-12-10T11:31:17.306Z,99582.97
2018-12-10T11:33:44.932Z,99593.22
2018-12-10T11:36:13.275Z,99585.75
2018-12-10T11:38:41.693Z,99603.44
2018-12-10T11:41:10.080Z,99608.62
2018-12-10T11:43:38.428Z,99607.31
2018-12-10T11:46:06.778Z,99608.83
2018-12-10T11:48:36.119Z,99606.93
2018-12-10T11:51:04.702Z,99604.02
2018-12-10T11:53:33.060Z,99605.86
2018-12-10T11:56:03.309Z,99592.06
2018-12-10T11:58:31.693Z,99607.66
2018-12-10T12:01:00.125Z,99604.90
2018-12-10T12:03:28.563Z,99607.28
2018-12-10T12:05:56.916Z,99608.30
2018-12-10T12:08:25.323Z,99599.64
2018-12-10T12:10:53.697Z,99585.78
2018-12-10T12:13:22.042Z,99583.84
2018-12-10T12:15:50.489Z,99585.85
2018-12-10T12:18:18.816Z,99593.59
2018-12-10T12:20:47.213Z,99592.32
2018-12-10T12:23:15.993Z,99588.84
2018-12-10T12:25:44.677Z,99585.61
2018-12-10T12:28:12.980Z,99583.77
2018-12-10T12:30:41.432Z,99588.86
2018-12-10T12:33:09.874Z,99597.11
2018-12-10T12:35:39.034Z,99584.30
2018-12-10T12:38:07.598Z,99595.18
2018-12-10T12:40:35.956Z,99585.46
2018-12-10T12:43:08.520Z,99582.77
2018-12-10T12:45:34.713Z,99580.66
2018-12-10T12:48:03.113Z,99584.31
2018-12-10T12:50:31.748Z,99589.87
2018-12-10T12:53:00.143Z,99578.89
2018-12-10T12:55:28.527Z,99579.46
2018-12-10T12:57:57.299Z,99591.16
2018-12-10T13:00:27.131Z,99602.02
2018-12-10T13:02:55.988Z,99591.10
2018-12-10T13:05:24.395Z,99593.82
2018-12-10T13:07:52.723Z,99601.77
2018-12-10T13:10:21.062Z,99591.59
2018-12-10T13:12:49.537Z,99592.91
2018-12-10T13:15:17.949Z,99591.61
2018-12-10T13:17:46.289Z,99586.28
2018-12-10T13:20:14.621Z,99589.80
2018-12-10T13:22:47.232Z,99594.03
2018-12-10T13:25:13.384Z,99595.38
2018-12-10T13:27:41.755Z,99590.80
2018-12-10T13:30:10.094Z,99603.84
2018-12-10T13:32:39.004Z,99597.22
2018-12-10T13:35:07.683Z,99594.12
2018-12-10T13:37:36.015Z,99598.11
2018-12-10T13:40:06.055Z,99591.43
2018-12-10T13:42:34.506Z,99601.61
2018-12-10T13:45:03.611Z,99602.70
2018-12-10T13:47:31.940Z,99601.97
2018-12-10T13:50:00.257Z,99597.49
2018-12-10T13:52:28.704Z,99597.37
2018-12-10T13:54:56.984Z,99597.66
2018-12-10T13:57:25.340Z,99601.59
2018-12-10T13:59:53.661Z,99596.52
2018-12-10T14:02:22.011Z,99606.91
2018-12-10T14:04:51.152Z,99609.47
2018-12-10T14:07:20.428Z,99604.49
2018-12-10T14:09:48.780Z,99611.33
2018-12-10T14:12:17.110Z,99619.33
2018-12-10T14:14:45.656Z,99613.73
2018-12-10T14:17:14.032Z,99613.52
2018-12-10T14:19:42.351Z,99618.20
2018-12-10T14:22:10.786Z,99622.75
2018-12-10T14:24:39.118Z,99608.98
2018-12-10T14:27:07.488Z,99621.67
2018-12-10T14:29:35.819Z,99627.78
2018-12-10T14:32:04.381Z,99615.59
2018-12-10T14:34:32.786Z,99620.05
2018-12-10T14:37:01.142Z,99617.91
2018-12-10T14:39:29.972Z,99613.14
2018-12-10T14:41:58.462Z,99618.16
2018-12-10T14:44:27.370Z,99633.31
2018-12-10T14:46:56.048Z,99624.22
2018-12-10T14:49:24.499Z,99619.69
2018-12-10T14:51:53.059Z,99622.09
2018-12-10T14:54:21.385Z,99623.39
2018-12-10T14:56:49.835Z,99622.24
2018-12-10T14:59:18.269Z,99624.86
2018-12-10T15:01:46.709Z,99633.25
2018-12-10T15:04:16.357Z,99638.80
2018-12-10T15:06:44.695Z,99645.15
2018-12-10T15:09:13.222Z,99652.06
2018-12-10T15:11:41.535Z,99659.08
2018-12-10T15:14:10.051Z,99654.03
2018-12-10T15:16:38.765Z,99647.75
2018-12-10T15:19:07.074Z,99657.87
2018-12-10T15:21:35.403Z,99653.31
2018-12-10T15:24:03.750Z,99658.86
2018-12-10T15:26:32.096Z,99673.00
2018-12-10T15:29:00.410Z,99677.24
2018-12-10T15:31:32.657Z,99672.38
2018-12-10T15:34:03.113Z,99659.94
2018-12-10T15:36:31.480Z,99668.98
2018-12-10T15:38:59.859Z,99663.36
2018-12-10T15:41:28.456Z,99663.19
2018-12-10T15:43:56.835Z,99661.44
2018-12-10T15:46:25.166Z,99670.47
2018-12-10T15:48:53.845Z,99672.94
2018-12-10T15:51:22.246Z,99665.75
2018-12-10T15:53:50.553Z,99666.25
2018-12-10T15:56:18.953Z,99670.98
2018-12-10T15:58:47.411Z,99664.23
2018-12-10T16:01:15.932Z,99657.61
2018-12-10T16:03:44.304Z,99656.41
2018-12-10T16:06:12.681Z,99663.36
2018-12-10T16:08:41.031Z,99662.38
2018-12-10T16:11:09.377Z,99660.38
2018-12-10T16:13:37.794Z,99655.47
2018-12-10T16:16:06.124Z,99664.98
2018-12-10T16:18:34.679Z,99673.42
2018-12-10T16:21:03.292Z,99672.27
2018-12-10T16:23:31.747Z,99667.45
2018-12-10T16:26:00.328Z,99667.09
2018-12-10T16:28:28.847Z,99679.23
2018-12-10T16:30:57.532Z,99673.02
2018-12-10T16:33:26.013Z,99683.05
2018-12-10T16:35:54.628Z,99675.01
2018-12-10T16:38:23.076Z,99671.70
2018-12-10T16:40:51.365Z,99666.44
2018-12-10T16:43:19.776Z,99673.88
2018-12-10T16:45:48.110Z,99669.64
2018-12-10T16:48:16.536Z,99669.94
2018-12-10T16:50:45.632Z,99676.06
2018-12-10T16:53:14.042Z,99669.20
2018-12-10T16:55:42.426Z,99672.92
2018-12-10T16:58:11.033Z,99671.80
2018-12-10T17:00:39.377Z,99670.67
2018-12-10T17:03:07.771Z,99674.70
2018-12-10T17:05:36.176Z,99661.75
2018-12-10T17:08:04.512Z,99665.53
2018-12-10T17:10:32.932Z,99658.14
2018-12-10T17:13:01.364Z,99654.98
2018-12-10T17:15:29.693Z,99657.37
2018-12-10T17:17:58.134Z,99651.37
2018-12-10T17:20:27.808Z,99646.59
2018-12-10T17:22:56.130Z,99646.56
2018-12-10T17:25:24.575Z,99641.88
2018-12-10T17:27:53.170Z,99649.33
2018-12-10T17:30:22.232Z,99653.31
2018-12-10T17:32:50.651Z,99655.45
2018-12-10T17:35:19.080Z,99655.25
2018-12-10T17:37:49.732Z,99655.95
2018-12-10T17:40:18.754Z,99651.63
2018-12-10T17:42:47.291Z,99644.45
2018-12-10T17:45:16.658Z,99649.63
2018-12-10T17:47:47.017Z,99647.12
2018-12-10T17:50:15.850Z,99647.29
2018-12-10T17:52:44.962Z,99638.45
2018-12-10T17:55:13.478Z,99644.25
2018-12-10T17:57:41.842Z,99641.33
2018-12-10T18:00:10.515Z,99646.62
2018-12-10T18:02:39.252Z,99641.00
2018-12-10T18:05:07.606Z,99636.93
2018-12-10T18:07:36.891Z,99641.36
2018-12-10T18:10:06.216Z,99644.54
2018-12-10T18:12:34.580Z,99649.84
2018-12-10T18:15:03.145Z,99644.73
2018-12-10T18:17:31.521Z,99637.75
2018-12-10T18:19:59.867Z,99654.85
2018-12-10T18:22:28.550Z,99645.94
2018-12-10T18:24:56.969Z,99650.40
2018-12-10T18:27:39.254Z,99643.25
2018-12-10T18:30:09.111Z,99637.42
2018-12-10T18:32:38.474Z,99642.98
2018-12-10T18:35:07.739Z,99635.84
2018-12-10T18:37:45.573Z,99631.88
2018-12-10T18:40:15.945Z,99637.73
2018-12-10T18:42:46.954Z,99629.71
2018-12-10T18:45:15.878Z,99633.69
2018-12-10T18:47:44.372Z,99637.13
2018-12-10T18:50:12.930Z,99630.92
2018-12-10T18:52:41.269Z,99638.00
2018-12-10T18:55:09.629Z,99632.09
2018-12-10T18:57:37.963Z,99634.06
2018-12-10T19:00:09.921Z,99628.50
2018-12-10T19:02:38.500Z,99635.30
2018-12-10T19:05:07.274Z,99636.59
2018-12-10T19:07:35.628Z,99628.56
2018-12-10T19:10:05.203Z,99631.78
2018-12-10T19:12:33.833Z,99630.72
2018-12-10T19:15:02.449Z,99631.03
2018-12-10T19:17:30.804Z,99635.53
2018-12-10T19:19:59.174Z,99632.89
2018-12-10T19:22:27.635Z,99627.33
2018-12-10T19:24:56.019Z,99630.50
2018-12-10T19:27:24.529Z,99635.08
2018-12-10T19:29:52.922Z,99639.05
2018-12-10T19:32:21.471Z,99630.63
2018-12-10T19:34:49.893Z,99633.27
2018-12-10T19:37:18.278Z,99636.48
2018-12-10T19:39:46.617Z,99631.19
2018-12-10T19:42:14.961Z,99631.41
2018-12-10T19:44:43.841Z,99641.47
2018-12-10T19:47:12.324Z,99634.86
2018-12-10T19:49:41.073Z,99632.81
2018-12-10T19:52:09.440Z,99623.33
2018-12-10T19:54:38.054Z,99620.76
2018-12-10T19:57:06.415Z,99622.69
2018-12-10T19:59:34.919Z,99618.79
2018-12-10T20:02:03.700Z,99619.88
2018-12-10T20:04:32.089Z,99625.52
2018-12-10T20:07:05.638Z,99612.58
2018-12-10T20:09:34.886Z,99615.23
2018-12-10T20:12:03.390Z,99612.31
2018-12-10T20:14:31.767Z,99613.91
2018-12-10T20:17:00.087Z,99616.28
2018-12-10T20:19:28.567Z,99614.59
2018-12-10T20:21:57.247Z,99613.69
2018-12-10T20:24:25.903Z,99614.86
2018-12-10T20:26:54.629Z,99615.23
2018-12-10T20:29:23.055Z,99608.58
2018-12-10T20:31:51.421Z,99607.48
2018-12-10T20:34:19.792Z,99617.50
2018-12-10T20:36:48.399Z,99611.08
2018-12-10T20:39:16.787Z,99611.33
2018-12-10T20:41:45.166Z,99605.95
2018-12-10T20:44:13.513Z,99615.30
2018-12-10T20:46:41.855Z,99607.67
2018-12-10T20:49:10.239Z,99606.92
2018-12-10T20:51:38.585Z,99602.11
2018-12-10T20:54:06.948Z,99596.34
2018-12-10T20:56:35.552Z,99592.89
2018-12-10T20:59:03.908Z,99594.22
2018-12-10T21:01:32.453Z,99605.41
2018-12-10T21:04:00.766Z,99594.03
2018-12-10T21:06:35.395Z,99595.95
2018-12-10T21:09:05.656Z,99584.66
2018-12-10T21:11:34.313Z,99591.80
2018-12-10T21:14:02.719Z,99588.17
2018-12-10T21:16:31.112Z,99587.38
2018-12-10T21:18:59.465Z,99579.70
2018-12-10T21:21:27.865Z,99584.01
2018-12-10T21:23:56.345Z,99585.79
2018-12-10T21:26:24.717Z,99585.79
2018-12-10T21:28:53.253Z,99587.68
2018-12-10T21:31:21.606Z,99582.69
2018-12-10T21:33:50.045Z,99566.58
2018-12-10T21:36:18.446Z,99576.70
2018-12-10T21:38:46.782Z,99569.23
2018-12-10T21:41:15.135Z,99562.91
2018-12-10T21:43:43.510Z,99560.00
2018-12-10T21:46:11.831Z,99557.61
2018-12-10T21:48:40.251Z,99557.61
2018-12-10T21:51:08.593Z,99555.00
2018-12-10T21:53:36.949Z,99554.77
2018-12-10T21:56:05.477Z,99553.71
2018-12-10T21:58:33.813Z,99562.22
2018-12-10T22:01:02.532Z,99559.27
2018-12-10T22:03:30.948Z,99558.52
2018-12-10T22:05:59.322Z,99551.89
2018-12-10T22:08:27.904Z,99549.31
2018-12-10T22:10:56.561Z,99549.08
2018-12-10T22:13:24.966Z,99555.47
2018-12-10T22:15:53.340Z,99553.98
2018-12-10T22:18:21.668Z,99542.92
2018-12-10T22:20:50.115Z,99542.42
2018-12-10T22:23:18.535Z,99542.42
2018-12-10T22:25:46.859Z,99535.24
2018-12-10T22:28:15.247Z,99536.30
2018-12-10T22:30:43.700Z,99524.19
2018-12-10T22:33:12.389Z,99523.13
2018-12-10T22:35:41.467Z,99529.72
2018-12-10T22:38:09.787Z,99531.77
2018-12-10T22:40:38.123Z,99525.64
2018-12-10T22:43:06.581Z,99529.02
2018-12-10T22:45:34.911Z,99524.95
2018-12-10T22:48:03.257Z,99523.31
2018-12-10T22:50:31.618Z,99516.16
2018-12-10T22:53:00.045Z,99527.77
2018-12-10T22:55:28.501Z,99519.80
2018-12-10T22:57:56.917Z,99511.36
2018-12-10T23:00:27.193Z,99519.10
2018-12-10T23:02:55.587Z,99522.02
2018-12-10T23:05:24.035Z,99513.05
2018-12-10T23:07:53.492Z,99525.78
2018-12-10T23:10:22.077Z,99523.73
2018-12-10T23:12:50.472Z,99522.70
2018-12-10T23:15:18.848Z,99520.06
2018-12-10T23:17:47.172Z,99521.64
2018-12-10T23:20:15.956Z,99522.41
2018-12-10T23:22:44.403Z,99520.26
2018-12-10T23:25:12.802Z,99515.69
2018-12-10T23:27:41.119Z,99511.92
2018-12-10T23:30:09.897Z,99510.53
2018-12-10T23:32:38.509Z,99514.97
2018-12-10T23:35:06.910Z,99508.81
2018-12-10T23:37:35.290Z,99512.26
2018-12-10T23:40:04.708Z,99513.12
2018-12-10T23:42:33.059Z,99509.61
2018-12-10T23:45:01.643Z,99518.08
2018-12-10T23:47:30.225Z,99512.45
2018-12-10T23:49:58.564Z,99518.80
2018-12-10T23:52:26.932Z,99513.52
2018-12-10T23:54:55.294Z,99514.23
2018-12-10T23:57:23.668Z,99528.03
2018-12-10T23:59:52.759Z,99528.19
